Groom, Texas
Current Conditions -  °F | °C
As of 11:35 PM on Monday 26 Jan 2015 (Local Time) from KPPA Reporting Station
Clear Clear  
Wind Chill: 40°   Ceiling: Unl
Heat Index: 45°   Visibility: 10mi
Dew Point: 34°   Wind: 9mph
Humidity: 67%   Direction: 270°W
Pressure: 30.22"   Gusts: NA
Location:  35.2°N, 101.11°W
Report Text: KPPA 270535Z AUTO 27008KT 10SM CLR 07/01 A3022 RMK AO2 T00700012
Loading
Personal Weather Stations






























Interactive Weather Map New forecast layout! Learn more

10-Day Weather Forecast

Advertisements
Track Severe Weather on mobile